sensor_id;sensor_type;location;lat;lon;timestamp;temperature;humidity
3172;DHT22;1597;51.572;6.992;2023-08-08T00:02:26;16.20;85.80
3172;DHT22;1597;51.572;6.992;2023-08-08T00:04:53;16.20;93.40
3172;DHT22;1597;51.572;6.992;2023-08-08T00:07:18;16.10;90.80
3172;DHT22;1597;51.572;6.992;2023-08-08T00:09:44;16.10;91.60
3172;DHT22;1597;51.572;6.992;2023-08-08T00:12:10;16.10;93.80
3172;DHT22;1597;51.572;6.992;2023-08-08T00:14:36;16.10;98.50
3172;DHT22;1597;51.572;6.992;2023-08-08T00:17:03;16.10;92.10
3172;DHT22;1597;51.572;6.992;2023-08-08T00:19:31;16.00;95.10
3172;DHT22;1597;51.572;6.992;2023-08-08T00:21:57;16.00;91.30
3172;DHT22;1597;51.572;6.992;2023-08-08T00:24:23;16.00;98.10
3172;DHT22;1597;51.572;6.992;2023-08-08T00:26:49;16.00;93.30
3172;DHT22;1597;51.572;6.992;2023-08-08T00:29:15;16.00;95.60
3172;DHT22;1597;51.572;6.992;2023-08-08T00:31:40;15.90;95.30
3172;DHT22;1597;51.572;6.992;2023-08-08T00:34:06;15.90;94.00
3172;DHT22;1597;51.572;6.992;2023-08-08T00:36:32;15.90;95.90
3172;DHT22;1597;51.572;6.992;2023-08-08T00:39:04;15.90;90.80
3172;DHT22;1597;51.572;6.992;2023-08-08T00:41:29;15.90;93.80
3172;DHT22;1597;51.572;6.992;2023-08-08T00:43:55;15.90;89.00
3172;DHT22;1597;51.572;6.992;2023-08-08T00:46:23;15.90;86.20
3172;DHT22;1597;51.572;6.992;2023-08-08T00:48:51;15.80;79.20
3172;DHT22;1597;51.572;6.992;2023-08-08T00:51:18;15.70;87.10
3172;DHT22;1597;51.572;6.992;2023-08-08T00:53:45;15.70;90.80
3172;DHT22;1597;51.572;6.992;2023-08-08T00:56:14;15.70;89.90
3172;DHT22;1597;51.572;6.992;2023-08-08T00:58:44;15.70;87.20
3172;DHT22;1597;51.572;6.992;2023-08-08T01:01:17;15.70;78.60
3172;DHT22;1597;51.572;6.992;2023-08-08T01:03:44;15.70;75.30
3172;DHT22;1597;51.572;6.992;2023-08-08T01:06:21;15.70;87.00
3172;DHT22;1597;51.572;6.992;2023-08-08T01:08:57;15.70;75.70
3172;DHT22;1597;51.572;6.992;2023-08-08T01:11:25;15.70;79.90
3172;DHT22;1597;51.572;6.992;2023-08-08T01:13:54;15.70;75.20
3172;DHT22;1597;51.572;6.992;2023-08-08T01:16:21;15.60;78.00
3172;DHT22;1597;51.572;6.992;2023-08-08T01:18:48;15.60;80.50
3172;DHT22;1597;51.572;6.992;2023-08-08T01:21:15;15.60;77.80
3172;DHT22;1597;51.572;6.992;2023-08-08T01:23:58;15.50;79.10
3172;DHT22;1597;51.572;6.992;2023-08-08T01:26:28;15.70;93.10
3172;DHT22;1597;51.572;6.992;2023-08-08T01:28:56;15.80;91.90
3172;DHT22;1597;51.572;6.992;2023-08-08T01:31:22;15.70;69.30
3172;DHT22;1597;51.572;6.992;2023-08-08T01:33:48;15.70;76.60
3172;DHT22;1597;51.572;6.992;2023-08-08T01:36:25;15.70;82.20
3172;DHT22;1597;51.572;6.992;2023-08-08T01:39:03;15.60;71.80
3172;DHT22;1597;51.572;6.992;2023-08-08T01:41:34;15.60;74.60
3172;DHT22;1597;51.572;6.992;2023-08-08T01:44:03;15.60;78.50
3172;DHT22;1597;51.572;6.992;2023-08-08T01:46:29;15.60;80.90
3172;DHT22;1597;51.572;6.992;2023-08-08T01:48:58;15.50;88.50
3172;DHT22;1597;51.572;6.992;2023-08-08T01:51:25;15.60;90.20
3172;DHT22;1597;51.572;6.992;2023-08-08T01:53:52;15.40;93.10
3172;DHT22;1597;51.572;6.992;2023-08-08T01:56:18;15.70;78.30
3172;DHT22;1597;51.572;6.992;2023-08-08T01:58:44;15.70;90.30
3172;DHT22;1597;51.572;6.992;2023-08-08T02:01:09;15.70;86.30
3172;DHT22;1597;51.572;6.992;2023-08-08T02:03:35;15.70;88.10
3172;DHT22;1597;51.572;6.992;2023-08-08T02:06:01;15.70;88.50
3172;DHT22;1597;51.572;6.992;2023-08-08T02:08:26;15.70;91.90
3172;DHT22;1597;51.572;6.992;2023-08-08T02:10:52;15.80;87.00
3172;DHT22;1597;51.572;6.992;2023-08-08T02:13:18;15.80;74.70
3172;DHT22;1597;51.572;6.992;2023-08-08T02:15:44;15.70;91.80
3172;DHT22;1597;51.572;6.992;2023-08-08T02:18:10;15.80;82.30
3172;DHT22;1597;51.572;6.992;2023-08-08T02:20:36;15.80;85.20
3172;DHT22;1597;51.572;6.992;2023-08-08T02:23:02;15.80;75.80
3172;DHT22;1597;51.572;6.992;2023-08-08T02:25:28;15.70;95.10
3172;DHT22;1597;51.572;6.992;2023-08-08T02:27:57;15.80;96.10
3172;DHT22;1597;51.572;6.992;2023-08-08T02:30:26;15.80;77.50
3172;DHT22;1597;51.572;6.992;2023-08-08T02:32:51;15.80;94.00
3172;DHT22;1597;51.572;6.992;2023-08-08T02:35:17;15.80;91.80
3172;DHT22;1597;51.572;6.992;2023-08-08T02:37:43;15.80;76.40
3172;DHT22;1597;51.572;6.992;2023-08-08T02:40:09;15.70;92.70
3172;DHT22;1597;51.572;6.992;2023-08-08T02:42:36;15.60;90.20
3172;DHT22;1597;51.572;6.992;2023-08-08T02:45:02;15.60;96.90
3172;DHT22;1597;51.572;6.992;2023-08-08T02:47:28;15.70;94.90
3172;DHT22;1597;51.572;6.992;2023-08-08T02:49:53;15.70;91.60
3172;DHT22;1597;51.572;6.992;2023-08-08T02:52:19;15.60;95.80
3172;DHT22;1597;51.572;6.992;2023-08-08T02:54:45;15.50;92.90
3172;DHT22;1597;51.572;6.992;2023-08-08T02:57:11;15.50;97.40
3172;DHT22;1597;51.572;6.992;2023-08-08T02:59:37;15.50;94.40
3172;DHT22;1597;51.572;6.992;2023-08-08T03:02:04;15.50;99.90
3172;DHT22;1597;51.572;6.992;2023-08-08T03:04:30;15.60;99.80
3172;DHT22;1597;51.572;6.992;2023-08-08T03:06:56;15.70;99.70
3172;DHT22;1597;51.572;6.992;2023-08-08T03:09:21;15.70;97.30
3172;DHT22;1597;51.572;6.992;2023-08-08T03:11:47;15.80;99.90
3172;DHT22;1597;51.572;6.992;2023-08-08T03:14:13;15.70;90.40
3172;DHT22;1597;51.572;6.992;2023-08-08T03:16:39;15.50;98.90
3172;DHT22;1597;51.572;6.992;2023-08-08T03:19:05;15.50;98.20
3172;DHT22;1597;51.572;6.992;2023-08-08T03:21:31;15.50;99.90
3172;DHT22;1597;51.572;6.992;2023-08-08T03:23:57;15.50;99.90
3172;DHT22;1597;51.572;6.992;2023-08-08T03:26:23;15.50;99.90
3172;DHT22;1597;51.572;6.992;2023-08-08T03:28:49;15.40;99.90
3172;DHT22;1597;51.572;6.992;2023-08-08T03:31:19;15.40;99.90
3172;DHT22;1597;51.572;6.992;2023-08-08T03:33:45;15.40;99.90
3172;DHT22;1597;51.572;6.992;2023-08-08T03:36:11;15.40;99.90
3172;DHT22;1597;51.572;6.992;2023-08-08T03:38:36;15.30;99.90
3172;DHT22;1597;51.572;6.992;2023-08-08T03:41:04;15.40;99.90
3172;DHT22;1597;51.572;6.992;2023-08-08T03:43:29;15.30;99.90
3172;DHT22;1597;51.572;6.992;2023-08-08T03:45:55;15.40;99.90
3172;DHT22;1597;51.572;6.992;2023-08-08T03:48:21;15.40;99.90
3172;DHT22;1597;51.572;6.992;2023-08-08T03:50:47;15.30;99.90
3172;DHT22;1597;51.572;6.992;2023-08-08T03:53:13;15.30;99.90
3172;DHT22;1597;51.572;6.992;2023-08-08T03:55:39;15.40;99.90
3172;DHT22;1597;51.572;6.992;2023-08-08T03:58:04;15.30;99.90
3172;DHT22;1597;51.572;6.992;2023-08-08T04:00:33;15.20;99.90
3172;DHT22;1597;51.572;6.992;2023-08-08T04:02:59;15.10;99.90
3172;DHT22;1597;51.572;6.992;2023-08-08T04:05:25;15.00;99.90
3172;DHT22;1597;51.572;6.992;2023-08-08T04:07:51;15.00;99.90
3172;DHT22;1597;51.572;6.992;2023-08-08T04:10:16;14.90;99.90
3172;DHT22;1597;51.572;6.992;2023-08-08T04:12:42;15.00;99.90
3172;DHT22;1597;51.572;6.992;2023-08-08T04:15:08;15.10;99.90
3172;DHT22;1597;51.572;6.992;2023-08-08T04:17:34;15.20;99.90
3172;DHT22;1597;51.572;6.992;2023-08-08T04:20:00;15.20;99.90
3172;DHT22;1597;51.572;6.992;2023-08-08T04:22:26;15.30;99.90
3172;DHT22;1597;51.572;6.992;2023-08-08T04:24:52;15.30;99.90
3172;DHT22;1597;51.572;6.992;2023-08-08T04:27:18;15.30;99.90
3172;DHT22;1597;51.572;6.992;2023-08-08T04:29:43;15.30;99.90
3172;DHT22;1597;51.572;6.992;2023-08-08T04:32:09;15.20;99.90
3172;DHT22;1597;51.572;6.992;2023-08-08T04:34:35;15.10;99.90
3172;DHT22;1597;51.572;6.992;2023-08-08T04:37:01;15.10;99.90
3172;DHT22;1597;51.572;6.992;2023-08-08T04:39:26;15.10;99.90
3172;DHT22;1597;51.572;6.992;2023-08-08T04:41:52;15.10;99.90
3172;DHT22;1597;51.572;6.992;2023-08-08T04:44:18;15.20;99.90
3172;DHT22;1597;51.572;6.992;2023-08-08T04:46:44;15.20;99.90
3172;DHT22;1597;51.572;6.992;2023-08-08T04:49:10;15.20;99.90
3172;DHT22;1597;51.572;6.992;2023-08-08T04:51:36;15.10;99.90
3172;DHT22;1597;51.572;6.992;2023-08-08T04:54:01;15.00;99.90
3172;DHT22;1597;51.572;6.992;2023-08-08T04:56:27;15.00;99.90
3172;DHT22;1597;51.572;6.992;2023-08-08T04:58:53;15.00;99.90
3172;DHT22;1597;51.572;6.992;2023-08-08T05:01:19;15.00;99.90
3172;DHT22;1597;51.572;6.992;2023-08-08T05:03:46;15.00;99.90
3172;DHT22;1597;51.572;6.992;2023-08-08T05:06:11;15.00;99.90
3172;DHT22;1597;51.572;6.992;2023-08-08T05:08:37;15.00;99.90
3172;DHT22;1597;51.572;6.992;2023-08-08T05:11:03;15.10;99.90
3172;DHT22;1597;51.572;6.992;2023-08-08T05:13:29;15.10;99.90
3172;DHT22;1597;51.572;6.992;2023-08-08T05:15:54;15.10;99.90
3172;DHT22;1597;51.572;6.992;2023-08-08T05:18:20;15.10;99.90
3172;DHT22;1597;51.572;6.992;2023-08-08T05:20:46;15.00;99.90
3172;DHT22;1597;51.572;6.992;2023-08-08T05:23:12;15.00;99.90
3172;DHT22;1597;51.572;6.992;2023-08-08T05:25:38;14.40;99.90
3172;DHT22;1597;51.572;6.992;2023-08-08T05:28:04;15.10;99.90
3172;DHT22;1597;51.572;6.992;2023-08-08T05:30:30;15.20;99.90
3172;DHT22;1597;51.572;6.992;2023-08-08T05:32:56;15.10;99.90
3172;DHT22;1597;51.572;6.992;2023-08-08T05:35:21;15.00;99.90
3172;DHT22;1597;51.572;6.992;2023-08-08T05:37:47;15.10;99.90
3172;DHT22;1597;51.572;6.992;2023-08-08T05:40:13;15.10;99.90
3172;DHT22;1597;51.572;6.992;2023-08-08T05:42:40;15.10;99.90
3172;DHT22;1597;51.572;6.992;2023-08-08T05:45:06;15.10;99.90
3172;DHT22;1597;51.572;6.992;2023-08-08T05:47:33;15.10;99.90
3172;DHT22;1597;51.572;6.992;2023-08-08T05:49:59;15.20;99.90
3172;DHT22;1597;51.572;6.992;2023-08-08T05:52:24;15.20;99.90
3172;DHT22;1597;51.572;6.992;2023-08-08T05:54:50;15.20;99.90
3172;DHT22;1597;51.572;6.992;2023-08-08T05:57:16;15.20;99.90
3172;DHT22;1597;51.572;6.992;2023-08-08T05:59:42;15.20;99.90
3172;DHT22;1597;51.572;6.992;2023-08-08T06:02:10;15.20;99.90
3172;DHT22;1597;51.572;6.992;2023-08-08T06:04:36;15.30;99.90
3172;DHT22;1597;51.572;6.992;2023-08-08T06:07:02;15.40;99.90
3172;DHT22;1597;51.572;6.992;2023-08-08T06:09:28;15.30;99.90
3172;DHT22;1597;51.572;6.992;2023-08-08T06:11:53;15.30;99.90
3172;DHT22;1597;51.572;6.992;2023-08-08T06:14:19;15.30;99.90
3172;DHT22;1597;51.572;6.992;2023-08-08T06:16:45;15.30;99.90
3172;DHT22;1597;51.572;6.992;2023-08-08T06:19:11;15.30;99.90
3172;DHT22;1597;51.572;6.992;2023-08-08T06:21:40;15.10;99.90
3172;DHT22;1597;51.572;6.992;2023-08-08T06:24:06;15.00;99.90
3172;DHT22;1597;51.572;6.992;2023-08-08T06:26:32;15.10;99.90
3172;DHT22;1597;51.572;6.992;2023-08-08T06:28:57;15.20;99.90
3172;DHT22;1597;51.572;6.992;2023-08-08T06:31:23;15.20;99.90
3172;DHT22;1597;51.572;6.992;2023-08-08T06:33:49;15.10;99.90
3172;DHT22;1597;51.572;6.992;2023-08-08T06:36:15;15.10;99.90
3172;DHT22;1597;51.572;6.992;2023-08-08T06:38:41;15.30;99.90
3172;DHT22;1597;51.572;6.992;2023-08-08T06:41:08;15.30;99.90
3172;DHT22;1597;51.572;6.992;2023-08-08T06:43:34;15.30;99.90
3172;DHT22;1597;51.572;6.992;2023-08-08T06:45:59;15.30;99.90
3172;DHT22;1597;51.572;6.992;2023-08-08T06:48:26;15.20;99.90
3172;DHT22;1597;51.572;6.992;2023-08-08T06:50:52;15.20;99.90
3172;DHT22;1597;51.572;6.992;2023-08-08T06:53:18;15.20;99.90
3172;DHT22;1597;51.572;6.992;2023-08-08T06:55:44;15.30;99.90
3172;DHT22;1597;51.572;6.992;2023-08-08T06:58:10;15.30;99.90
3172;DHT22;1597;51.572;6.992;2023-08-08T07:00:35;15.40;99.90
3172;DHT22;1597;51.572;6.992;2023-08-08T07:03:01;15.50;99.90
3172;DHT22;1597;51.572;6.992;2023-08-08T07:05:27;15.50;99.90
3172;DHT22;1597;51.572;6.992;2023-08-08T07:07:54;15.50;99.90
3172;DHT22;1597;51.572;6.992;2023-08-08T07:10:20;15.60;99.90
3172;DHT22;1597;51.572;6.992;2023-08-08T07:12:46;15.50;99.90
3172;DHT22;1597;51.572;6.992;2023-08-08T07:15:12;15.50;99.90
3172;DHT22;1597;51.572;6.992;2023-08-08T07:17:38;15.60;99.90
3172;DHT22;1597;51.572;6.992;2023-08-08T07:20:04;15.70;99.90
3172;DHT22;1597;51.572;6.992;2023-08-08T07:22:32;15.80;99.90
3172;DHT22;1597;51.572;6.992;2023-08-08T07:24:59;15.50;99.90
3172;DHT22;1597;51.572;6.992;2023-08-08T07:27:26;15.90;99.90
3172;DHT22;1597;51.572;6.992;2023-08-08T07:29:52;16.00;99.90
3172;DHT22;1597;51.572;6.992;2023-08-08T07:32:19;16.10;99.90
3172;DHT22;1597;51.572;6.992;2023-08-08T07:34:44;16.10;99.90
3172;DHT22;1597;51.572;6.992;2023-08-08T07:37:11;16.20;99.90
3172;DHT22;1597;51.572;6.992;2023-08-08T07:39:36;16.20;99.90
3172;DHT22;1597;51.572;6.992;2023-08-08T07:42:02;16.20;99.90
3172;DHT22;1597;51.572;6.992;2023-08-08T07:44:28;16.20;99.90
3172;DHT22;1597;51.572;6.992;2023-08-08T07:46:54;16.20;99.90
3172;DHT22;1597;51.572;6.992;2023-08-08T07:49:20;16.30;99.90
3172;DHT22;1597;51.572;6.992;2023-08-08T07:51:46;16.40;99.90
3172;DHT22;1597;51.572;6.992;2023-08-08T07:54:12;16.50;99.90
3172;DHT22;1597;51.572;6.992;2023-08-08T07:56:38;16.60;99.90
3172;DHT22;1597;51.572;6.992;2023-08-08T07:59:04;16.50;99.90
3172;DHT22;1597;51.572;6.992;2023-08-08T08:01:30;16.60;99.90
3172;DHT22;1597;51.572;6.992;2023-08-08T08:03:56;16.60;99.90
3172;DHT22;1597;51.572;6.992;2023-08-08T08:06:22;16.70;99.90
3172;DHT22;1597;51.572;6.992;2023-08-08T08:08:48;16.80;99.90
3172;DHT22;1597;51.572;6.992;2023-08-08T08:11:14;17.00;97.80
3172;DHT22;1597;51.572;6.992;2023-08-08T08:13:41;17.10;96.80
3172;DHT22;1597;51.572;6.992;2023-08-08T08:16:07;17.10;94.30
3172;DHT22;1597;51.572;6.992;2023-08-08T08:18:33;17.10;95.10
3172;DHT22;1597;51.572;6.992;2023-08-08T08:21:00;17.00;94.70
3172;DHT22;1597;51.572;6.992;2023-08-08T08:23:27;17.10;96.30
3172;DHT22;1597;51.572;6.992;2023-08-08T08:25:53;17.10;90.10
3172;DHT22;1597;51.572;6.992;2023-08-08T08:28:18;17.20;89.90
3172;DHT22;1597;51.572;6.992;2023-08-08T08:30:44;17.10;89.20
3172;DHT22;1597;51.572;6.992;2023-08-08T08:33:10;17.20;77.50
3172;DHT22;1597;51.572;6.992;2023-08-08T08:35:36;17.10;71.40
3172;DHT22;1597;51.572;6.992;2023-08-08T08:38:03;17.20;54.20
3172;DHT22;1597;51.572;6.992;2023-08-08T08:40:33;17.10;60.30
3172;DHT22;1597;51.572;6.992;2023-08-08T08:43:03;17.20;62.90
3172;DHT22;1597;51.572;6.992;2023-08-08T08:45:30;17.30;62.30
3172;DHT22;1597;51.572;6.992;2023-08-08T08:47:56;17.40;40.00
3172;DHT22;1597;51.572;6.992;2023-08-08T08:50:26;17.30;45.50
3172;DHT22;1597;51.572;6.992;2023-08-08T08:52:53;17.30;50.40
3172;DHT22;1597;51.572;6.992;2023-08-08T08:55:23;17.30;53.00
3172;DHT22;1597;51.572;6.992;2023-08-08T08:57:50;17.40;58.50
3172;DHT22;1597;51.572;6.992;2023-08-08T09:00:16;17.50;53.00
3172;DHT22;1597;51.572;6.992;2023-08-08T09:02:43;17.60;39.00
3172;DHT22;1597;51.572;6.992;2023-08-08T09:08:24;17.70;43.90
3172;DHT22;1597;51.572;6.992;2023-08-08T09:10:50;17.70;46.30
3172;DHT22;1597;51.572;6.992;2023-08-08T09:13:16;17.70;49.80
3172;DHT22;1597;51.572;6.992;2023-08-08T09:15:42;17.70;52.70
3172;DHT22;1597;51.572;6.992;2023-08-08T09:18:08;17.70;47.80
3172;DHT22;1597;51.572;6.992;2023-08-08T09:20:38;17.80;30.70
3172;DHT22;1597;51.572;6.992;2023-08-08T09:23:04;17.70;26.40
3172;DHT22;1597;51.572;6.992;2023-08-08T09:25:30;17.70;21.80
3172;DHT22;1597;51.572;6.992;2023-08-08T09:27:56;17.70;27.70
3172;DHT22;1597;51.572;6.992;2023-08-08T09:30:22;17.80;24.10
3172;DHT22;1597;51.572;6.992;2023-08-08T09:32:48;17.80;23.60
3172;DHT22;1597;51.572;6.992;2023-08-08T09:35:15;17.90;17.00
3172;DHT22;1597;51.572;6.992;2023-08-08T09:37:41;17.80;15.20
3172;DHT22;1597;51.572;6.992;2023-08-08T09:40:07;17.80;19.80
3172;DHT22;1597;51.572;6.992;2023-08-08T09:42:34;17.80;23.00
3172;DHT22;1597;51.572;6.992;2023-08-08T09:45:01;17.90;24.50
3172;DHT22;1597;51.572;6.992;2023-08-08T09:47:27;17.90;22.40
3172;DHT22;1597;51.572;6.992;2023-08-08T09:50:01;17.90;20.10
3172;DHT22;1597;51.572;6.992;2023-08-08T09:52:35;17.90;19.70
3172;DHT22;1597;51.572;6.992;2023-08-08T09:55:04;17.90;15.00
3172;DHT22;1597;51.572;6.992;2023-08-08T09:57:33;17.80;13.40
3172;DHT22;1597;51.572;6.992;2023-08-08T10:00:00;17.80;15.00
3172;DHT22;1597;51.572;6.992;2023-08-08T10:02:27;17.80;19.40
3172;DHT22;1597;51.572;6.992;2023-08-08T10:04:53;17.70;21.30
3172;DHT22;1597;51.572;6.992;2023-08-08T10:07:19;17.70;28.60
3172;DHT22;1597;51.572;6.992;2023-08-08T10:09:45;17.60;32.30
3172;DHT22;1597;51.572;6.992;2023-08-08T10:12:11;17.50;34.80
3172;DHT22;1597;51.572;6.992;2023-08-08T10:14:38;17.40;46.50
3172;DHT22;1597;51.572;6.992;2023-08-08T10:17:08;17.30;40.40
3172;DHT22;1597;51.572;6.992;2023-08-08T10:19:39;17.30;48.00
3172;DHT22;1597;51.572;6.992;2023-08-08T10:22:07;17.30;47.10
3172;DHT22;1597;51.572;6.992;2023-08-08T10:24:36;17.40;52.00
3172;DHT22;1597;51.572;6.992;2023-08-08T10:27:03;17.50;46.60
3172;DHT22;1597;51.572;6.992;2023-08-08T10:29:32;17.60;23.60
3172;DHT22;1597;51.572;6.992;2023-08-08T10:32:00;17.60;21.70
3172;DHT22;1597;51.572;6.992;2023-08-08T10:34:42;17.40;24.90
3172;DHT22;1597;51.572;6.992;2023-08-08T10:37:14;17.60;30.00
3172;DHT22;1597;51.572;6.992;2023-08-08T10:39:54;17.40;83.70
3172;DHT22;1597;51.572;6.992;2023-08-08T10:42:22;17.10;94.00
3172;DHT22;1597;51.572;6.992;2023-08-08T10:44:56;16.90;99.90
3172;DHT22;1597;51.572;6.992;2023-08-08T10:47:45;16.70;99.90
3172;DHT22;1597;51.572;6.992;2023-08-08T10:50:15;16.60;99.90
3172;DHT22;1597;51.572;6.992;2023-08-08T10:52:56;16.60;99.90
3172;DHT22;1597;51.572;6.992;2023-08-08T10:57:58;16.70;99.90
3172;DHT22;1597;51.572;6.992;2023-08-08T11:00:33;16.80;99.90
3172;DHT22;1597;51.572;6.992;2023-08-08T11:03:01;16.90;99.90
3172;DHT22;1597;51.572;6.992;2023-08-08T11:05:31;17.00;99.90
3172;DHT22;1597;51.572;6.992;2023-08-08T11:07:58;17.00;99.90
3172;DHT22;1597;51.572;6.992;2023-08-08T11:10:25;17.10;99.90
3172;DHT22;1597;51.572;6.992;2023-08-08T11:13:01;17.20;99.90
3172;DHT22;1597;51.572;6.992;2023-08-08T11:15:28;17.30;99.90
3172;DHT22;1597;51.572;6.992;2023-08-08T11:17:56;17.30;99.90
3172;DHT22;1597;51.572;6.992;2023-08-08T11:20:25;17.30;98.90
3172;DHT22;1597;51.572;6.992;2023-08-08T11:22:55;17.30;95.90
3172;DHT22;1597;51.572;6.992;2023-08-08T11:25:22;17.20;86.20
3172;DHT22;1597;51.572;6.992;2023-08-08T11:27:52;17.20;70.80
3172;DHT22;1597;51.572;6.992;2023-08-08T11:30:19;17.10;48.50
3172;DHT22;1597;51.572;6.992;2023-08-08T11:32:49;17.10;57.40
3172;DHT22;1597;51.572;6.992;2023-08-08T11:35:23;17.10;50.10
3172;DHT22;1597;51.572;6.992;2023-08-08T11:37:55;17.10;49.30
3172;DHT22;1597;51.572;6.992;2023-08-08T11:40:25;17.10;53.20
3172;DHT22;1597;51.572;6.992;2023-08-08T11:42:52;17.20;48.60
3172;DHT22;1597;51.572;6.992;2023-08-08T11:45:19;17.40;49.90
3172;DHT22;1597;51.572;6.992;2023-08-08T11:47:53;17.60;34.40
3172;DHT22;1597;51.572;6.992;2023-08-08T11:50:22;17.80;33.90
3172;DHT22;1597;51.572;6.992;2023-08-08T11:52:51;18.10;32.10
3172;DHT22;1597;51.572;6.992;2023-08-08T11:55:18;18.30;19.30
3172;DHT22;1597;51.572;6.992;2023-08-08T11:57:49;18.40;6.90
3172;DHT22;1597;51.572;6.992;2023-08-08T12:00:16;18.60;1.30
3172;DHT22;1597;51.572;6.992;2023-08-08T12:02:43;18.70;3.70
3172;DHT22;1597;51.572;6.992;2023-08-08T12:05:12;18.90;1.50
3172;DHT22;1597;51.572;6.992;2023-08-08T12:07:39;19.00;1.20
3172;DHT22;1597;51.572;6.992;2023-08-08T12:10:14;19.00;1.00
3172;DHT22;1597;51.572;6.992;2023-08-08T12:12:45;18.80;1.00
3172;DHT22;1597;51.572;6.992;2023-08-08T12:15:11;18.90;1.00
3172;DHT22;1597;51.572;6.992;2023-08-08T12:17:38;18.90;1.00
3172;DHT22;1597;51.572;6.992;2023-08-08T12:20:06;19.00;1.00
3172;DHT22;1597;51.572;6.992;2023-08-08T12:22:33;19.10;1.00
3172;DHT22;1597;51.572;6.992;2023-08-08T12:24:59;19.30;1.00
3172;DHT22;1597;51.572;6.992;2023-08-08T12:27:25;19.40;1.00
3172;DHT22;1597;51.572;6.992;2023-08-08T12:29:51;19.50;1.00
3172;DHT22;1597;51.572;6.992;2023-08-08T12:32:21;19.50;1.00
3172;DHT22;1597;51.572;6.992;2023-08-08T12:34:49;19.40;1.00
3172;DHT22;1597;51.572;6.992;2023-08-08T12:37:15;19.30;1.00
3172;DHT22;1597;51.572;6.992;2023-08-08T12:39:41;19.30;1.00
3172;DHT22;1597;51.572;6.992;2023-08-08T12:42:07;19.20;1.00
3172;DHT22;1597;51.572;6.992;2023-08-08T12:44:33;19.10;1.00
3172;DHT22;1597;51.572;6.992;2023-08-08T12:46:59;19.20;1.00
3172;DHT22;1597;51.572;6.992;2023-08-08T12:49:25;19.30;1.00
3172;DHT22;1597;51.572;6.992;2023-08-08T12:51:51;19.40;1.00
3172;DHT22;1597;51.572;6.992;2023-08-08T12:54:18;19.50;1.00
3172;DHT22;1597;51.572;6.992;2023-08-08T12:56:44;19.60;1.00
3172;DHT22;1597;51.572;6.992;2023-08-08T12:59:10;19.70;1.00
3172;DHT22;1597;51.572;6.992;2023-08-08T13:01:36;19.70;1.00
3172;DHT22;1597;51.572;6.992;2023-08-08T13:04:01;19.70;1.00
3172;DHT22;1597;51.572;6.992;2023-08-08T13:06:29;19.50;1.00
3172;DHT22;1597;51.572;6.992;2023-08-08T13:08:56;19.30;1.00
3172;DHT22;1597;51.572;6.992;2023-08-08T13:11:22;19.20;1.00
3172;DHT22;1597;51.572;6.992;2023-08-08T13:13:48;19.10;1.00
3172;DHT22;1597;51.572;6.992;2023-08-08T13:16:14;19.00;1.00
3172;DHT22;1597;51.572;6.992;2023-08-08T13:18:40;18.90;1.00
3172;DHT22;1597;51.572;6.992;2023-08-08T13:21:05;18.90;1.00
3172;DHT22;1597;51.572;6.992;2023-08-08T13:23:32;19.00;1.00
3172;DHT22;1597;51.572;6.992;2023-08-08T13:25:58;19.10;1.00
3172;DHT22;1597;51.572;6.992;2023-08-08T13:28:23;19.30;1.00
3172;DHT22;1597;51.572;6.992;2023-08-08T13:30:49;19.30;1.00
3172;DHT22;1597;51.572;6.992;2023-08-08T13:33:16;19.30;1.00
3172;DHT22;1597;51.572;6.992;2023-08-08T13:35:41;19.20;1.00
3172;DHT22;1597;51.572;6.992;2023-08-08T13:38:07;19.20;1.00
3172;DHT22;1597;51.572;6.992;2023-08-08T13:40:42;19.20;1.00
3172;DHT22;1597;51.572;6.992;2023-08-08T13:43:08;19.10;1.00
3172;DHT22;1597;51.572;6.992;2023-08-08T13:45:34;19.20;1.00
3172;DHT22;1597;51.572;6.992;2023-08-08T13:48:00;19.30;1.00
3172;DHT22;1597;51.572;6.992;2023-08-08T13:50:26;19.30;1.00
3172;DHT22;1597;51.572;6.992;2023-08-08T13:52:54;19.30;1.00
3172;DHT22;1597;51.572;6.992;2023-08-08T13:55:19;19.30;1.00
3172;DHT22;1597;51.572;6.992;2023-08-08T13:57:45;19.40;1.00
3172;DHT22;1597;51.572;6.992;2023-08-08T14:00:12;19.40;1.00
3172;DHT22;1597;51.572;6.992;2023-08-08T14:02:38;19.40;1.00
3172;DHT22;1597;51.572;6.992;2023-08-08T14:05:05;19.30;1.00
3172;DHT22;1597;51.572;6.992;2023-08-08T14:07:35;19.20;1.00
3172;DHT22;1597;51.572;6.992;2023-08-08T14:10:04;19.10;1.00
3172;DHT22;1597;51.572;6.992;2023-08-08T14:12:30;19.00;1.00
3172;DHT22;1597;51.572;6.992;2023-08-08T14:14:56;19.00;1.00
3172;DHT22;1597;51.572;6.992;2023-08-08T14:17:22;18.90;1.00
3172;DHT22;1597;51.572;6.992;2023-08-08T14:19:48;18.90;1.00
3172;DHT22;1597;51.572;6.992;2023-08-08T14:22:14;19.10;1.00
3172;DHT22;1597;51.572;6.992;2023-08-08T14:24:42;19.30;1.00
3172;DHT22;1597;51.572;6.992;2023-08-08T14:27:09;19.50;1.00
3172;DHT22;1597;51.572;6.992;2023-08-08T14:29:35;20.00;1.00
3172;DHT22;1597;51.572;6.992;2023-08-08T14:32:00;19.60;1.00
3172;DHT22;1597;51.572;6.992;2023-08-08T14:34:33;19.60;1.00
3172;DHT22;1597;51.572;6.992;2023-08-08T14:37:00;19.70;1.00
3172;DHT22;1597;51.572;6.992;2023-08-08T14:39:27;19.80;1.00
3172;DHT22;1597;51.572;6.992;2023-08-08T14:41:53;19.80;1.00
3172;DHT22;1597;51.572;6.992;2023-08-08T14:44:19;19.70;1.00
3172;DHT22;1597;51.572;6.992;2023-08-08T14:46:45;19.50;1.00
3172;DHT22;1597;51.572;6.992;2023-08-08T14:49:10;19.70;1.00
3172;DHT22;1597;51.572;6.992;2023-08-08T14:51:37;19.80;1.00
3172;DHT22;1597;51.572;6.992;2023-08-08T14:54:03;19.80;1.00
3172;DHT22;1597;51.572;6.992;2023-08-08T14:56:29;19.80;1.00
3172;DHT22;1597;51.572;6.992;2023-08-08T14:58:55;19.70;1.00
3172;DHT22;1597;51.572;6.992;2023-08-08T15:01:21;19.60;1.00
3172;DHT22;1597;51.572;6.992;2023-08-08T15:03:47;19.70;1.00
3172;DHT22;1597;51.572;6.992;2023-08-08T15:06:13;19.80;1.00
3172;DHT22;1597;51.572;6.992;2023-08-08T15:08:39;19.80;1.00
3172;DHT22;1597;51.572;6.992;2023-08-08T15:11:05;19.90;1.00
3172;DHT22;1597;51.572;6.992;2023-08-08T15:13:32;19.90;1.00
3172;DHT22;1597;51.572;6.992;2023-08-08T15:15:58;19.90;1.00
3172;DHT22;1597;51.572;6.992;2023-08-08T15:18:24;19.80;1.00
3172;DHT22;1597;51.572;6.992;2023-08-08T15:20:50;19.80;1.00
3172;DHT22;1597;51.572;6.992;2023-08-08T15:23:16;19.80;1.00
3172;DHT22;1597;51.572;6.992;2023-08-08T15:25:41;19.80;1.00
3172;DHT22;1597;51.572;6.992;2023-08-08T15:28:08;19.80;1.00
3172;DHT22;1597;51.572;6.992;2023-08-08T15:30:34;19.90;1.00
3172;DHT22;1597;51.572;6.992;2023-08-08T15:32:59;20.00;1.00
3172;DHT22;1597;51.572;6.992;2023-08-08T15:35:25;20.10;1.00
3172;DHT22;1597;51.572;6.992;2023-08-08T15:37:52;20.20;1.00
3172;DHT22;1597;51.572;6.992;2023-08-08T15:40:18;20.20;1.00
3172;DHT22;1597;51.572;6.992;2023-08-08T15:42:44;20.10;1.00
3172;DHT22;1597;51.572;6.992;2023-08-08T15:45:10;20.10;1.00
3172;DHT22;1597;51.572;6.992;2023-08-08T15:47:37;20.00;1.00
3172;DHT22;1597;51.572;6.992;2023-08-08T15:50:05;20.00;1.00
3172;DHT22;1597;51.572;6.992;2023-08-08T15:52:32;20.00;1.00
3172;DHT22;1597;51.572;6.992;2023-08-08T15:54:58;19.90;1.00
3172;DHT22;1597;51.572;6.992;2023-08-08T15:57:23;19.80;1.00
3172;DHT22;1597;51.572;6.992;2023-08-08T15:59:49;19.80;1.00
3172;DHT22;1597;51.572;6.992;2023-08-08T16:02:15;19.80;1.00
3172;DHT22;1597;51.572;6.992;2023-08-08T16:04:41;19.80;1.00
3172;DHT22;1597;51.572;6.992;2023-08-08T16:07:07;19.70;1.00
3172;DHT22;1597;51.572;6.992;2023-08-08T16:09:33;19.70;1.00
3172;DHT22;1597;51.572;6.992;2023-08-08T16:11:58;19.70;1.00